Time;durP1;ratioP1;P1;durP2;ratioP2;P2;SDS_P1;SDS_P2;PMS_P1;PMS_P2;Temp;Humidity;BMP_temperature;BMP_pressure;BME280_temperature;BME280_humidity;BME280_pressure;Samples;Min_cycle;Max_cycle;Signal;HPM_P1;HPM_P2
2021/04/16 00:00:42;;;;;;;4.23;3.87;;;;;20.70;101714.00;;;;2074514;28;20731;-49
2021/04/16 00:01:42;;;;;;;4.22;3.83;;;;;20.70;101713.00;;;;2074132;28;20216;-48
2021/04/16 00:02:42;;;;;;;4.47;3.43;;;;;20.70;101715.00;;;;2073298;28;20297;-48
2021/04/16 00:03:43;;;;;;;4.50;4.10;;;;;20.70;101712.00;;;;2074073;28;20214;-47
2021/04/16 00:04:43;;;;;;;4.23;3.87;;;;;20.60;101716.00;;;;2073721;28;20218;-48
2021/04/16 00:05:43;;;;;;;4.20;3.80;;;;;20.70;101714.00;;;;2075439;28;20222;-49
2021/04/16 00:06:44;;;;;;;3.90;3.57;;;;;20.70;101713.00;;;;2074379;28;20227;-48
2021/04/16 00:07:44;;;;;;;3.97;3.67;;;;;20.60;101714.00;;;;2074552;28;20256;-50
2021/04/16 00:08:44;;;;;;;3.60;3.30;;;;;20.70;101712.00;;;;2078179;28;20221;-49
2021/04/16 00:09:45;;;;;;;4.43;3.90;;;;;20.70;101707.00;;;;2074498;28;20222;-49
2021/04/16 00:10:54;;;;;;;4.27;3.87;;;;;20.70;101710.00;;;;2071533;28;20296;-48
2021/04/16 00:11:54;;;;;;;3.80;3.50;;;;;20.70;101701.00;;;;2073699;28;20229;-48
2021/04/16 00:12:55;;;;;;;4.20;3.73;;;;;20.70;101703.00;;;;2073742;28;20234;-48
2021/04/16 00:13:55;;;;;;;3.43;3.13;;;;;20.70;101704.00;;;;2073966;28;20217;-48
2021/04/16 00:14:56;;;;;;;4.57;3.40;;;;;20.70;101700.00;;;;2073745;28;20222;-48
2021/04/16 00:15:56;;;;;;;4.33;3.53;;;;;20.70;101700.00;;;;2072655;28;20288;-48
2021/04/16 00:16:56;;;;;;;3.43;2.77;;;;;20.60;101698.00;;;;2073782;28;20226;-48
2021/04/16 00:17:57;;;;;;;3.47;3.17;;;;;20.60;101703.00;;;;2073835;28;20297;-48
2021/04/16 00:18:57;;;;;;;3.33;3.03;;;;;20.60;101703.00;;;;2075620;28;20214;-48
2021/04/16 00:19:57;;;;;;;3.83;3.53;;;;;20.60;101700.00;;;;2072711;28;20307;-49
2021/04/16 00:20:58;;;;;;;3.57;3.27;;;;;20.60;101697.00;;;;2076157;28;20310;-48
2021/04/16 00:21:58;;;;;;;3.43;3.13;;;;;20.60;101695.00;;;;2077993;28;20217;-49
2021/04/16 00:22:59;;;;;;;3.50;3.20;;;;;20.60;101699.00;;;;2075653;28;20626;-48
2021/04/16 00:23:59;;;;;;;3.10;2.90;;;;;20.60;101701.00;;;;2075799;28;20253;-49
2021/04/16 00:25:00;;;;;;;3.70;3.40;;;;;20.60;101701.00;;;;2075109;28;20710;-53
2021/04/16 00:26:00;;;;;;;3.30;3.00;;;;;20.60;101699.00;;;;2074295;28;20288;-49
2021/04/16 00:27:01;;;;;;;3.10;2.50;;;;;20.60;101695.00;;;;2074098;28;20272;-48
2021/04/16 00:28:02;;;;;;;3.00;2.60;;;;;20.60;101696.00;;;;2075269;28;20293;-48
2021/04/16 00:29:02;;;;;;;2.90;2.70;;;;;20.60;101695.00;;;;2076661;28;20677;-48
2021/04/16 00:30:04;;;;;;;3.00;2.80;;;;;20.60;101693.00;;;;2079439;28;20518;-48
2021/04/16 00:31:12;;;;;;;4.93;3.22;;;;;20.60;101691.00;;;;2074693;28;20324;-48
2021/04/16 00:32:12;;;;;;;3.13;2.83;;;;;20.60;101699.00;;;;2075470;28;20309;-49
2021/04/16 00:33:12;;;;;;;3.30;3.00;;;;;20.60;101692.00;;;;2073146;28;20698;-48
2021/04/16 00:34:13;;;;;;;3.00;2.80;;;;;20.60;101687.00;;;;2073648;28;20710;-48
2021/04/16 00:35:13;;;;;;;3.00;2.70;;;;;20.60;101690.00;;;;2075834;28;20225;-48
2021/04/16 00:36:14;;;;;;;3.57;3.27;;;;;20.60;101694.00;;;;2074743;28;20210;-48
2021/04/16 00:37:14;;;;;;;3.10;2.80;;;;;20.60;101692.00;;;;2075147;28;20686;-48
2021/04/16 00:38:15;;;;;;;3.80;3.23;;;;;20.60;101689.00;;;;2075343;28;20271;-47
2021/04/16 00:39:17;;;;;;;3.10;2.80;;;;;20.60;101681.00;;;;2074429;28;20214;-48
2021/04/16 00:40:19;;;;;;;3.00;2.78;;;;;20.60;101682.00;;;;2075347;28;20213;-48
2021/04/16 00:41:23;;;;;;;3.00;2.45;;;;;20.60;101681.00;;;;2075079;28;20257;-48
2021/04/16 00:42:23;;;;;;;2.97;2.50;;;;;20.50;101680.00;;;;2072088;28;20221;-48
2021/04/16 00:43:24;;;;;;;3.03;2.80;;;;;20.50;101682.00;;;;2075767;28;20217;-47
2021/04/16 00:44:25;;;;;;;3.00;2.67;;;;;20.50;101683.00;;;;2073616;28;20219;-47
2021/04/16 00:45:26;;;;;;;3.27;2.97;;;;;20.50;101681.00;;;;2074027;28;20218;-47
2021/04/16 00:46:26;;;;;;;3.55;3.15;;;;;20.50;101677.00;;;;2075379;28;20929;-48
2021/04/16 00:47:27;;;;;;;3.27;2.73;;;;;20.50;101666.00;;;;2075590;28;20234;-48
2021/04/16 00:48:28;;;;;;;3.20;2.90;;;;;20.50;101671.00;;;;2073057;28;20221;-48
2021/04/16 00:49:31;;;;;;;3.08;2.88;;;;;20.50;101682.00;;;;2058728;28;20223;-48
2021/04/16 00:50:36;;;;;;;2.47;2.28;;;;;20.50;101683.00;;;;2061256;28;20286;-49
2021/04/16 00:51:44;;;;;;;2.63;2.42;;;;;20.50;101684.00;;;;2067320;28;20274;-48
2021/04/16 00:52:44;;;;;;;2.70;2.50;;;;;20.50;101682.00;;;;2071537;28;20293;-48
2021/04/16 00:53:44;;;;;;;2.80;2.60;;;;;20.50;101673.00;;;;2070852;28;20203;-49
2021/04/16 00:54:45;;;;;;;2.70;2.50;;;;;20.50;101685.00;;;;2075033;28;20266;-48
2021/04/16 00:55:45;;;;;;;2.67;2.40;;;;;20.50;101679.00;;;;2073167;28;20311;-48
2021/04/16 00:56:46;;;;;;;2.70;2.50;;;;;20.50;101679.00;;;;2066183;28;20214;-49
2021/04/16 00:57:47;;;;;;;2.75;2.55;;;;;20.50;101680.00;;;;2074609;28;20199;-48
2021/04/16 00:58:47;;;;;;;2.40;2.20;;;;;20.50;101680.00;;;;2078585;28;20301;-49
2021/04/16 00:59:50;;;;;;;2.83;2.63;;;;;20.50;101675.00;;;;2078294;28;20211;-48
2021/04/16 01:00:52;;;;;;;2.95;2.58;;;;;20.40;101678.00;;;;2066872;28;20207;-49
2021/04/16 01:01:53;;;;;;;3.47;3.17;;;;;20.50;101681.00;;;;2067034;28;20243;-49
2021/04/16 01:02:53;;;;;;;2.70;2.50;;;;;20.40;101676.00;;;;2073531;28;20605;-48
2021/04/16 01:03:54;;;;;;;3.40;2.60;;;;;20.50;101670.00;;;;2077573;28;20218;-48
2021/04/16 01:04:54;;;;;;;2.73;2.50;;;;;20.40;101666.00;;;;2074384;28;20294;-48
2021/04/16 01:05:56;;;;;;;2.93;2.73;;;;;20.40;101665.00;;;;2072864;28;20313;-47
2021/04/16 01:06:56;;;;;;;2.67;2.47;;;;;20.40;101669.00;;;;2074891;28;20583;-48
2021/04/16 01:07:57;;;;;;;2.87;2.57;;;;;20.40;101674.00;;;;2069448;28;20265;-47
2021/04/16 01:08:57;;;;;;;2.60;2.40;;;;;20.40;101666.00;;;;2066542;28;20661;-47
2021/04/16 01:09:57;;;;;;;2.90;2.40;;;;;20.40;101660.00;;;;2066986;28;20302;-48
2021/04/16 01:10:58;;;;;;;2.03;1.83;;;;;20.40;101667.00;;;;2078289;28;20772;-48
2021/04/16 01:11:58;;;;;;;2.80;2.37;;;;;20.40;101669.00;;;;2078603;28;20263;-47
2021/04/16 01:12:59;;;;;;;2.77;2.50;;;;;20.40;101671.00;;;;2070615;28;20230;-48
2021/04/16 01:13:59;;;;;;;3.07;2.80;;;;;20.40;101666.00;;;;2058684;28;20647;-48
2021/04/16 01:15:14;;;;;;;2.57;2.37;;;;;20.40;101669.00;;;;2051801;28;20236;-48
2021/04/16 01:16:17;;;;;;;2.60;2.40;;;;;20.40;101666.00;;;;2062665;28;20241;-49
2021/04/16 01:17:18;;;;;;;2.67;2.47;;;;;20.40;101674.00;;;;2074601;28;20718;-49
2021/04/16 01:18:20;;;;;;;2.90;2.60;;;;;20.40;101664.00;;;;2076800;28;20306;-48
2021/04/16 01:19:39;;;;;;;3.10;2.80;;;;;20.40;101665.00;;;;2058274;28;20216;-48
2021/04/16 01:20:42;;;;;;;2.75;2.50;;;;;20.40;101664.00;;;;2056874;28;20244;-49
2021/04/16 01:21:50;;;;;;;3.10;2.80;;;;;20.40;101663.00;;;;2066125;28;20234;-47
2021/04/16 01:22:50;;;;;;;2.60;2.40;;;;;20.40;101663.00;;;;2066239;28;20218;-49
2021/04/16 01:24:11;;;;;;;2.70;2.50;;;;;20.40;101662.00;;;;2074119;28;20625;-48
2021/04/16 01:25:12;;;;;;;2.60;2.40;;;;;20.40;101659.00;;;;2067530;28;20790;-49
2021/04/16 01:26:15;;;;;;;2.60;2.07;;;;;20.40;101668.00;;;;2057509;28;20220;-48
2021/04/16 01:27:15;;;;;;;2.95;2.65;;;;;20.30;101662.00;;;;2067144;28;20823;-48
2021/04/16 01:28:16;;;;;;;2.97;2.50;;;;;20.40;101664.00;;;;2075858;28;20217;-48
2021/04/16 01:29:16;;;;;;;3.80;2.93;;;;;20.40;101669.00;;;;2073457;28;20218;-48
2021/04/16 01:30:21;;;;;;;2.93;2.63;;;;;20.30;101661.00;;;;2074172;28;20289;-47
2021/04/16 01:31:23;;;;;;;2.38;2.17;;;;;20.30;101658.00;;;;2078118;28;20221;-48
2021/04/16 01:32:30;;;;;;;2.63;2.42;;;;;20.30;101658.00;;;;2075124;28;20210;-48
2021/04/16 01:33:32;;;;;;;2.78;2.28;;;;;20.30;101661.00;;;;2074252;28;20225;-49
2021/04/16 01:34:32;;;;;;;2.60;2.35;;;;;20.30;101665.00;;;;2073184;28;20225;-48
2021/04/16 01:35:34;;;;;;;2.50;2.30;;;;;20.40;101663.00;;;;2073878;28;20229;-48
2021/04/16 01:36:34;;;;;;;2.47;2.28;;;;;20.30;101663.00;;;;2075147;28;20218;-48
2021/04/16 01:37:34;;;;;;;2.37;2.17;;;;;20.30;101669.00;;;;2075522;28;20222;-48
2021/04/16 01:38:35;;;;;;;2.43;2.23;;;;;20.30;101672.00;;;;2065575;28;20309;-49
2021/04/16 01:39:35;;;;;;;3.00;2.57;;;;;20.30;101670.00;;;;2070048;28;20226;-48
2021/04/16 01:40:35;;;;;;;2.53;2.30;;;;;20.30;101663.00;;;;2075590;28;20659;-47
2021/04/16 01:41:36;;;;;;;2.67;2.47;;;;;20.30;101671.00;;;;2062941;28;20841;-48
2021/04/16 01:42:36;;;;;;;2.40;2.30;;;;;20.30;101670.00;;;;2071960;28;20706;-49
2021/04/16 01:43:38;;;;;;;2.40;2.20;;;;;20.30;101672.00;;;;2074609;28;20703;-48
2021/04/16 01:44:41;;;;;;;2.55;2.30;;;;;20.30;101667.00;;;;2074977;28;20272;-48
2021/04/16 01:45:42;;;;;;;2.40;2.20;;;;;20.30;101662.00;;;;2073955;28;20265;-49
2021/04/16 01:47:01;;;;;;;2.80;2.60;;;;;20.30;101679.00;;;;2075724;28;20248;-49
2021/04/16 01:48:02;;;;;;;1.90;1.80;;;;;20.30;101667.00;;;;2072531;28;20206;-49
2021/04/16 01:49:02;;;;;;;2.33;2.13;;;;;20.30;101666.00;;;;2076096;28;20301;-49
2021/04/16 01:50:03;;;;;;;2.60;2.40;;;;;20.30;101661.00;;;;2074450;28;20225;-48
2021/04/16 01:51:04;;;;;;;2.37;2.17;;;;;20.30;101669.00;;;;2071617;28;20266;-48
2021/04/16 01:52:05;;;;;;;2.30;2.10;;;;;20.30;101660.00;;;;2063889;28;20244;-49
2021/04/16 01:53:07;;;;;;;2.65;2.45;;;;;20.30;101661.00;;;;2071623;28;20218;-48
2021/04/16 01:54:11;;;;;;;2.70;2.50;;;;;20.30;101662.00;;;;2067944;28;20221;-48
2021/04/16 01:55:11;;;;;;;2.45;2.20;;;;;20.30;101664.00;;;;2074257;28;20226;-47
2021/04/16 01:56:12;;;;;;;2.63;1.90;;;;;20.30;101663.00;;;;2074230;28;20214;-48
2021/04/16 01:57:15;;;;;;;4.40;2.30;;;;;20.20;101656.00;;;;2075739;28;20287;-48
2021/04/16 01:58:16;;;;;;;1.83;1.73;;;;;20.20;101665.00;;;;2076092;28;20265;-48
2021/04/16 01:59:22;;;;;;;2.20;2.00;;;;;20.30;101664.00;;;;2074200;28;20790;-48
2021/04/16 02:00:30;;;;;;;2.63;1.98;;;;;20.20;101659.00;;;;2075100;28;20560;-48
2021/04/16 02:01:30;;;;;;;2.40;2.20;;;;;20.20;101656.00;;;;2074662;28;20214;-48
2021/04/16 02:02:32;;;;;;;2.53;2.17;;;;;20.20;101649.00;;;;2074843;28;20245;-48
2021/04/16 02:03:32;;;;;;;1.88;1.70;;;;;20.20;101654.00;;;;2073514;28;20218;-48
2021/04/16 02:04:33;;;;;;;2.00;1.80;;;;;20.20;101607.00;;;;2071710;28;20337;-48
2021/04/16 02:05:33;;;;;;;2.00;1.90;;;;;20.20;101658.00;;;;2072930;28;20563;-48
2021/04/16 02:06:34;;;;;;;2.63;1.93;;;;;20.30;101659.00;;;;2075980;28;20216;-48
2021/04/16 02:07:34;;;;;;;2.70;2.20;;;;;20.20;101658.00;;;;2076047;28;20286;-48
2021/04/16 02:08:34;;;;;;;2.20;2.10;;;;;20.20;101661.00;;;;2075287;28;20215;-48
2021/04/16 02:09:36;;;;;;;2.03;1.93;;;;;20.20;101666.00;;;;2068703;28;20276;-48
2021/04/16 02:10:36;;;;;;;2.53;2.33;;;;;20.20;101652.00;;;;2081553;28;20213;-48
2021/04/16 02:11:37;;;;;;;2.20;2.00;;;;;20.20;101656.00;;;;2074458;28;20370;-48
2021/04/16 02:12:37;;;;;;;2.30;1.90;;;;;20.20;101656.00;;;;2074142;28;20309;-48
2021/04/16 02:13:37;;;;;;;2.30;2.13;;;;;20.20;101661.00;;;;2074381;28;20708;-48
2021/04/16 02:14:38;;;;;;;2.60;2.40;;;;;20.20;101662.00;;;;2074858;28;20218;-48
2021/04/16 02:15:38;;;;;;;1.80;1.70;;;;;20.20;101666.00;;;;2073139;28;20218;-48
2021/04/16 02:16:40;;;;;;;2.23;2.03;;;;;20.20;101666.00;;;;2077113;28;20223;-47
2021/04/16 02:17:41;;;;;;;2.10;1.80;;;;;20.20;101658.00;;;;2074425;28;21041;-47
2021/04/16 02:18:41;;;;;;;2.33;2.17;;;;;20.20;101664.00;;;;2069880;28;20277;-48
2021/04/16 02:19:42;;;;;;;2.40;1.90;;;;;20.20;101667.00;;;;2072467;28;20733;-49
2021/04/16 02:20:42;;;;;;;2.47;2.20;;;;;20.20;101660.00;;;;2075270;28;20222;-47
2021/04/16 02:21:42;;;;;;;2.40;1.90;;;;;20.20;101660.00;;;;2075857;28;20662;-48
2021/04/16 02:22:43;;;;;;;2.53;2.00;;;;;20.20;101662.00;;;;2074289;28;20219;-47
2021/04/16 02:23:43;;;;;;;2.30;2.20;;;;;20.20;101666.00;;;;2074374;28;20224;-48
2021/04/16 02:24:43;;;;;;;2.20;2.10;;;;;20.20;101656.00;;;;2075007;28;20205;-46
2021/04/16 02:25:44;;;;;;;2.00;1.80;;;;;20.20;101654.00;;;;2076982;28;20221;-48
2021/04/16 02:26:44;;;;;;;2.67;2.20;;;;;20.20;101660.00;;;;2068981;28;20233;-48
2021/04/16 02:27:44;;;;;;;2.47;2.27;;;;;20.20;101658.00;;;;2072985;28;20282;-47
2021/04/16 02:28:45;;;;;;;2.43;2.23;;;;;20.10;101663.00;;;;2074435;28;20325;-49
2021/04/16 02:29:45;;;;;;;2.70;2.17;;;;;20.20;101664.00;;;;2074441;28;20301;-49
2021/04/16 02:30:46;;;;;;;2.70;1.97;;;;;20.20;101658.00;;;;2074646;28;20696;-49
2021/04/16 02:31:47;;;;;;;2.40;2.10;;;;;20.10;101660.00;;;;2074434;28;20678;-48
2021/04/16 02:32:47;;;;;;;1.90;1.80;;;;;20.10;101655.00;;;;2074527;28;20221;-49
2021/04/16 02:33:47;;;;;;;2.27;2.00;;;;;20.10;101658.00;;;;2073645;28;20582;-47
2021/04/16 02:34:48;;;;;;;2.37;2.13;;;;;20.10;101659.00;;;;2072412;28;20683;-48
2021/04/16 02:35:48;;;;;;;2.17;1.97;;;;;20.10;101651.00;;;;2074007;28;20282;-49
2021/04/16 02:36:49;;;;;;;2.40;2.20;;;;;20.10;101661.00;;;;2072125;28;20294;-48
2021/04/16 02:37:50;;;;;;;2.13;2.03;;;;;20.10;101653.00;;;;2076461;28;20226;-49
2021/04/16 02:38:52;;;;;;;2.60;2.40;;;;;20.10;101660.00;;;;2074318;28;20222;-48
2021/04/16 02:39:52;;;;;;;2.70;2.50;;;;;20.10;101654.00;;;;2074268;28;20633;-48
2021/04/16 02:40:53;;;;;;;2.60;2.20;;;;;20.10;101660.00;;;;2074029;28;20222;-49
2021/04/16 02:41:53;;;;;;;2.70;2.50;;;;;20.10;101658.00;;;;2074033;28;20225;-49
2021/04/16 02:42:53;;;;;;;2.70;2.50;;;;;20.10;101647.00;;;;2073966;28;20284;-49
2021/04/16 02:43:54;;;;;;;2.27;2.10;;;;;20.10;101652.00;;;;2074920;28;20231;-49
2021/04/16 02:44:54;;;;;;;2.50;2.30;;;;;20.10;101658.00;;;;2078103;28;20224;-49
2021/04/16 02:45:55;;;;;;;2.90;2.60;;;;;20.10;101655.00;;;;2073335;28;20222;-48
2021/04/16 02:46:55;;;;;;;2.50;2.23;;;;;20.10;101656.00;;;;2071898;28;20218;-49
2021/04/16 02:47:55;;;;;;;2.37;2.17;;;;;20.10;101657.00;;;;2073649;28;20225;-48
2021/04/16 02:48:56;;;;;;;3.37;2.50;;;;;20.10;101657.00;;;;2074331;28;20218;-47
2021/04/16 02:49:56;;;;;;;2.60;2.40;;;;;20.10;101616.00;;;;2074199;28;20222;-51
2021/04/16 02:50:57;;;;;;;5.00;3.00;;;;;20.10;101654.00;;;;2074850;28;20683;-52
2021/04/16 02:51:57;;;;;;;2.70;2.40;;;;;20.10;101662.00;;;;2073579;28;20289;-49
2021/04/16 02:52:57;;;;;;;3.27;2.97;;;;;20.10;101661.00;;;;2072217;28;20215;-51
2021/04/16 02:53:58;;;;;;;2.50;2.30;;;;;20.10;101658.00;;;;2076192;28;20829;-50
2021/04/16 02:54:58;;;;;;;3.37;3.07;;;;;20.10;101661.00;;;;2077530;28;20587;-50
2021/04/16 02:55:58;;;;;;;5.27;3.10;;;;;20.10;101659.00;;;;2077377;28;20218;-49
2021/04/16 02:56:59;;;;;;;3.30;3.00;;;;;20.10;101651.00;;;;2074426;28;20262;-48
2021/04/16 02:57:59;;;;;;;3.07;2.80;;;;;20.10;101652.00;;;;2074108;28;20237;-49
2021/04/16 02:58:59;;;;;;;3.37;3.07;;;;;20.10;101649.00;;;;2074316;28;20214;-48
2021/04/16 03:00:00;;;;;;;3.20;2.90;;;;;20.10;101665.00;;;;2074045;28;20882;-49
2021/04/16 03:01:00;;;;;;;2.93;2.73;;;;;20.10;101646.00;;;;2073041;28;20219;-49
2021/04/16 03:02:01;;;;;;;3.00;2.77;;;;;20.10;101657.00;;;;2074808;28;20218;-50
2021/04/16 03:03:01;;;;;;;3.07;2.77;;;;;20.10;101658.00;;;;2074592;28;20268;-48
2021/04/16 03:04:01;;;;;;;2.80;2.60;;;;;20.10;101658.00;;;;2074358;28;20586;-48
2021/04/16 03:05:03;;;;;;;4.07;2.50;;;;;20.10;101648.00;;;;2074323;28;20275;-49
2021/04/16 03:06:04;;;;;;;2.72;2.53;;;;;20.00;101649.00;;;;2073420;28;20214;-48
2021/04/16 03:07:04;;;;;;;3.60;2.80;;;;;20.10;101657.00;;;;2073921;28;20241;-48
2021/04/16 03:08:05;;;;;;;2.50;2.30;;;;;20.00;101651.00;;;;2073929;28;20446;-48
2021/04/16 03:09:05;;;;;;;2.93;2.63;;;;;20.10;101657.00;;;;2077744;28;20209;-48
2021/04/16 03:10:06;;;;;;;2.80;2.60;;;;;20.10;101655.00;;;;2072161;28;20325;-48
2021/04/16 03:11:07;;;;;;;2.97;2.63;;;;;20.00;101650.00;;;;2074829;28;20229;-49
2021/04/16 03:12:08;;;;;;;2.97;2.63;;;;;20.00;101656.00;;;;2069734;28;20297;-49
2021/04/16 03:13:08;;;;;;;2.80;2.57;;;;;20.00;101658.00;;;;2074636;28;20811;-48
2021/04/16 03:14:09;;;;;;;3.00;2.70;;;;;20.00;101653.00;;;;2074611;28;20213;-49
2021/04/16 03:15:09;;;;;;;2.10;2.00;;;;;20.00;101652.00;;;;2070368;28;20228;-49
2021/04/16 03:16:10;;;;;;;2.50;2.30;;;;;20.00;101658.00;;;;2080566;28;20304;-49
2021/04/16 03:17:10;;;;;;;2.30;2.10;;;;;20.00;101657.00;;;;2074210;28;20211;-49
2021/04/16 03:18:11;;;;;;;2.63;2.43;;;;;20.00;101646.00;;;;2074869;28;20215;-49
2021/04/16 03:19:12;;;;;;;2.50;2.30;;;;;20.00;101656.00;;;;2074789;28;20211;-48
2021/04/16 03:20:12;;;;;;;3.83;2.83;;;;;20.00;101649.00;;;;2074276;28;20456;-48
2021/04/16 03:21:13;;;;;;;2.63;2.43;;;;;20.00;101665.00;;;;2070830;28;20218;-48
2021/04/16 03:22:13;;;;;;;2.60;2.40;;;;;20.00;101659.00;;;;2070819;28;20471;-49
2021/04/16 03:23:13;;;;;;;2.73;2.53;;;;;20.00;101661.00;;;;2076818;28;20226;-50
2021/04/16 03:24:14;;;;;;;2.53;2.33;;;;;20.00;101648.00;;;;2072909;28;20222;-48
2021/04/16 03:25:15;;;;;;;2.53;2.30;;;;;20.00;101653.00;;;;2073639;28;20782;-48
2021/04/16 03:26:15;;;;;;;2.47;2.27;;;;;20.00;101650.00;;;;2072526;28;20246;-49
2021/04/16 03:27:16;;;;;;;2.33;2.13;;;;;20.00;101665.00;;;;2074121;28;20560;-49
2021/04/16 03:28:16;;;;;;;2.50;2.30;;;;;20.00;101664.00;;;;2074547;28;20211;-48
2021/04/16 03:29:16;;;;;;;2.60;2.40;;;;;20.00;101661.00;;;;2074658;28;20211;-48
2021/04/16 03:30:19;;;;;;;2.93;2.67;;;;;20.00;101645.00;;;;2074514;28;20883;-48
2021/04/16 03:31:19;;;;;;;2.63;2.42;;;;;20.00;101647.00;;;;2072495;28;20218;-48
2021/04/16 03:32:20;;;;;;;2.47;2.27;;;;;20.00;101651.00;;;;2068739;28;20217;-49
2021/04/16 03:33:20;;;;;;;2.60;2.40;;;;;20.00;101656.00;;;;2073958;28;20707;-48
2021/04/16 03:34:20;;;;;;;2.40;2.20;;;;;19.90;101650.00;;;;2077750;28;20221;-48
2021/04/16 03:35:21;;;;;;;2.50;2.30;;;;;20.00;101655.00;;;;2073424;28;20792;-48
2021/04/16 03:36:21;;;;;;;2.30;2.17;;;;;20.00;101645.00;;;;2074456;28;20233;-47
2021/04/16 03:37:22;;;;;;;2.50;2.30;;;;;20.00;101653.00;;;;2076443;28;20222;-48
2021/04/16 03:38:22;;;;;;;2.40;2.20;;;;;20.00;101646.00;;;;2076441;28;20230;-48
2021/04/16 03:39:22;;;;;;;2.50;2.30;;;;;20.00;101657.00;;;;2076120;28;20306;-47
2021/04/16 03:40:26;;;;;;;2.50;2.30;;;;;20.00;101659.00;;;;2075101;28;20218;-52
2021/04/16 03:41:27;;;;;;;2.58;2.38;;;;;19.90;101661.00;;;;2070324;28;20297;-48
2021/04/16 03:42:27;;;;;;;2.90;2.60;;;;;19.90;101653.00;;;;2066685;28;20218;-47
2021/04/16 03:43:27;;;;;;;2.80;2.60;;;;;19.90;101651.00;;;;2072533;28;20241;-48
2021/04/16 03:44:28;;;;;;;2.67;2.47;;;;;19.90;101648.00;;;;2069323;28;20301;-49
2021/04/16 03:45:28;;;;;;;2.60;2.40;;;;;19.90;101647.00;;;;2073341;28;20214;-49
2021/04/16 03:46:29;;;;;;;2.90;2.70;;;;;19.90;101646.00;;;;2074454;28;20675;-49
2021/04/16 03:47:29;;;;;;;2.40;2.20;;;;;19.90;101650.00;;;;2074456;28;20348;-47
2021/04/16 03:48:29;;;;;;;2.90;2.60;;;;;19.90;101648.00;;;;2077695;28;20212;-48
2021/04/16 03:49:30;;;;;;;3.50;2.40;;;;;19.90;101652.00;;;;2074059;28;20210;-48
2021/04/16 03:50:31;;;;;;;2.83;2.53;;;;;19.90;101656.00;;;;2073356;28;20213;-48
2021/04/16 03:51:35;;;;;;;2.15;2.05;;;;;19.90;101647.00;;;;2074024;28;20213;-48
2021/04/16 03:52:36;;;;;;;2.40;2.20;;;;;19.90;101649.00;;;;2060160;28;20265;-49
2021/04/16 03:53:37;;;;;;;2.40;2.20;;;;;19.90;101653.00;;;;2065466;28;21069;-47
2021/04/16 03:54:37;;;;;;;2.83;2.53;;;;;19.90;101651.00;;;;2077888;28;20214;-48
2021/04/16 03:55:38;;;;;;;3.10;2.53;;;;;19.90;101657.00;;;;2077333;28;20717;-48
2021/04/16 03:56:38;;;;;;;3.23;2.40;;;;;19.90;101656.00;;;;2074526;28;20790;-48
2021/04/16 03:57:39;;;;;;;2.70;2.50;;;;;19.90;101659.00;;;;2073639;28;20713;-48
2021/04/16 03:58:40;;;;;;;2.80;2.37;;;;;19.90;101660.00;;;;2073591;28;20210;-48
2021/04/16 03:59:41;;;;;;;2.35;2.15;;;;;19.90;101658.00;;;;2069704;28;20880;-48
2021/04/16 04:00:41;;;;;;;2.80;2.60;;;;;19.90;101655.00;;;;2073660;28;20360;-48
2021/04/16 04:01:42;;;;;;;2.67;2.47;;;;;19.90;101654.00;;;;2074116;28;20260;-49
2021/04/16 04:02:42;;;;;;;2.50;2.30;;;;;19.90;101654.00;;;;2075682;28;20222;-48
2021/04/16 04:03:42;;;;;;;2.27;2.07;;;;;19.90;101654.00;;;;2077863;28;20217;-50
2021/04/16 04:04:43;;;;;;;2.60;2.40;;;;;19.90;101651.00;;;;2074352;28;20218;-48
2021/04/16 04:05:43;;;;;;;2.70;2.50;;;;;19.90;101654.00;;;;2069412;28;20225;-49
2021/04/16 04:06:45;;;;;;;2.50;2.30;;;;;19.90;101657.00;;;;2074336;28;20252;-49
2021/04/16 04:07:46;;;;;;;2.60;2.40;;;;;19.90;101652.00;;;;2074256;28;20256;-48
2021/04/16 04:08:46;;;;;;;2.87;2.60;;;;;19.90;101655.00;;;;2075297;28;20221;-48
2021/04/16 04:09:47;;;;;;;2.60;2.40;;;;;19.90;101655.00;;;;2075095;28;20205;-49
2021/04/16 04:10:47;;;;;;;2.23;2.03;;;;;19.90;101659.00;;;;2074311;28;20300;-49
2021/04/16 04:11:47;;;;;;;4.63;2.10;;;;;19.80;101648.00;;;;2070209;28;20229;-49
2021/04/16 04:12:48;;;;;;;3.10;2.43;;;;;19.80;101661.00;;;;2070693;28;20647;-48
2021/04/16 04:13:48;;;;;;;4.17;2.50;;;;;19.80;101673.00;;;;2074692;28;20599;-49
2021/04/16 04:14:48;;;;;;;2.90;2.70;;;;;19.90;101669.00;;;;2074385;28;20273;-49
2021/04/16 04:15:49;;;;;;;2.30;2.03;;;;;19.80;101669.00;;;;2073497;28;20218;-48
2021/04/16 04:16:58;;;;;;;2.37;2.17;;;;;19.80;101677.00;;;;2074658;28;20228;-48
2021/04/16 04:17:58;;;;;;;3.80;2.83;;;;;19.80;101671.00;;;;2065721;28;20615;-49
2021/04/16 04:18:58;;;;;;;2.63;2.43;;;;;19.80;101671.00;;;;2073702;28;20259;-49
2021/04/16 04:19:59;;;;;;;2.83;2.53;;;;;19.80;101679.00;;;;2073874;28;20210;-48
2021/04/16 04:20:59;;;;;;;2.93;2.73;;;;;19.80;101676.00;;;;2073333;28;20229;-49
2021/04/16 04:22:00;;;;;;;2.60;2.40;;;;;19.80;101677.00;;;;2073548;28;20214;-48
2021/04/16 04:23:00;;;;;;;3.33;3.00;;;;;19.80;101670.00;;;;2075174;28;20691;-47
2021/04/16 04:24:01;;;;;;;3.47;2.40;;;;;19.80;101670.00;;;;2075038;28;20213;-49
2021/04/16 04:25:01;;;;;;;2.93;2.70;;;;;19.80;101670.00;;;;2074366;28;20206;-48
2021/04/16 04:26:02;;;;;;;2.67;2.47;;;;;19.80;101672.00;;;;2072844;28;20206;-48
2021/04/16 04:27:02;;;;;;;3.27;2.57;;;;;19.80;101674.00;;;;2073832;28;20221;-49
2021/04/16 04:28:04;;;;;;;3.30;3.10;;;;;19.80;101668.00;;;;2073962;28;20720;-49
2021/04/16 04:29:04;;;;;;;2.60;2.40;;;;;19.80;101675.00;;;;2072927;28;20219;-48
2021/04/16 04:30:05;;;;;;;2.50;2.30;;;;;19.80;101673.00;;;;2067547;28;20718;-49
2021/04/16 04:31:06;;;;;;;2.50;2.30;;;;;19.80;101676.00;;;;2073720;28;20799;-48
2021/04/16 04:32:06;;;;;;;3.23;2.67;;;;;19.80;101675.00;;;;2074175;28;20456;-48
2021/04/16 04:33:07;;;;;;;3.40;2.70;;;;;19.80;101666.00;;;;2076183;28;20643;-49
2021/04/16 04:34:07;;;;;;;3.30;2.60;;;;;19.80;101664.00;;;;2074045;28;20241;-48
2021/04/16 04:35:08;;;;;;;2.83;2.57;;;;;19.80;101670.00;;;;2070374;28;20222;-48
2021/04/16 04:36:08;;;;;;;2.63;2.43;;;;;19.80;101658.00;;;;2072544;28;20206;-49
2021/04/16 04:37:09;;;;;;;3.00;2.70;;;;;19.80;101664.00;;;;2073146;28;20210;-49
2021/04/16 04:38:09;;;;;;;2.70;2.40;;;;;19.80;101661.00;;;;2073966;28;20214;-49
2021/04/16 04:39:12;;;;;;;2.73;2.50;;;;;19.80;101669.00;;;;2073890;28;20217;-49
2021/04/16 04:40:13;;;;;;;2.90;2.70;;;;;19.80;101669.00;;;;2069644;28;20218;-48
2021/04/16 04:41:13;;;;;;;3.97;3.10;;;;;19.80;101659.00;;;;2073993;28;20782;-49
2021/04/16 04:42:13;;;;;;;2.70;2.50;;;;;19.80;101662.00;;;;2070400;28;20445;-48
2021/04/16 04:43:14;;;;;;;2.63;2.43;;;;;19.80;101660.00;;;;2073874;28;20211;-48
2021/04/16 04:44:14;;;;;;;3.13;2.57;;;;;19.80;101665.00;;;;2074044;28;20649;-48
2021/04/16 04:45:15;;;;;;;2.67;2.47;;;;;19.80;101667.00;;;;2073798;28;20227;-48
2021/04/16 04:46:15;;;;;;;2.70;2.50;;;;;19.80;101663.00;;;;2073273;28;20209;-49
2021/04/16 04:47:16;;;;;;;2.63;2.43;;;;;19.70;101657.00;;;;2054595;28;20679;-47
2021/04/16 04:48:16;;;;;;;3.53;2.50;;;;;19.80;101661.00;;;;2073860;28;20313;-48
2021/04/16 04:49:19;;;;;;;2.70;2.50;;;;;19.70;101662.00;;;;2074003;28;20219;-48
2021/04/16 04:50:20;;;;;;;2.95;2.65;;;;;19.80;101669.00;;;;2071113;28;20214;-48
2021/04/16 04:51:21;;;;;;;2.95;2.63;;;;;19.70;101673.00;;;;2074132;28;20737;-48
2021/04/16 04:52:28;;;;;;;3.23;2.93;;;;;19.70;101677.00;;;;2074909;28;20215;-49
2021/04/16 04:53:28;;;;;;;2.90;2.60;;;;;19.70;101663.00;;;;2070175;28;20219;-48
2021/04/16 04:54:28;;;;;;;2.60;2.40;;;;;19.80;101660.00;;;;2075231;28;20211;-48
2021/04/16 04:55:30;;;;;;;4.73;3.10;;;;;19.80;101668.00;;;;2078263;28;20594;-48
2021/04/16 04:56:31;;;;;;;3.25;2.80;;;;;19.70;101668.00;;;;2073603;28;20210;-48
2021/04/16 04:57:31;;;;;;;3.27;3.00;;;;;19.70;101668.00;;;;2072993;28;20695;-48
2021/04/16 04:58:31;;;;;;;2.90;2.60;;;;;19.70;101659.00;;;;2073676;28;20369;-48
2021/04/16 04:59:32;;;;;;;3.33;2.47;;;;;19.80;101662.00;;;;2060587;28;20218;-49
2021/04/16 05:00:32;;;;;;;3.53;2.50;;;;;19.80;101662.00;;;;2066660;28;20231;-47
2021/04/16 05:01:32;;;;;;;3.20;2.50;;;;;19.80;101654.00;;;;2073681;28;20711;-49
2021/04/16 05:02:33;;;;;;;2.60;2.40;;;;;19.90;101661.00;;;;2074136;28;20265;-48